Flight Track Log - Related Links

Times and Time Zones

All times are in EDT time to prevent confusion due to time zone crossing. See the SWA3294 flight status page for this flight to view local times or setup timezone preferences in your user account.

Time Position Orientation Groundspeed Altitude Reporting Facility
EDT Latitude Longitude Course Direction KTS MPH feet Rate Location/Type
Sat 06:17:58 AM 33.6500 -84.3667 54° Northeast 181 208 2,900  Level Atlanta TRACON
Sat 06:18:46 AM 33.6833 -84.3167 51° Northeast 228 262 4,800 2,842 Climbing Atlanta TRACON
Sat 06:19:52 AM 33.7167 -84.2333 64° Northeast 277 319 8,300 2,354 Climbing Atlanta TRACON
Sat 06:21:47 AM 33.7817 -84.0664 65° Northeast 318 366 11,900 2,229 Climbing Atlanta Center
Sat 06:22:47 AM 33.8275 -83.9589 63° Northeast 343 395 14,800 2,750 Climbing Atlanta Center
Sat 06:23:00 AM 33.7980 -83.8979 54° Northeast  Level FlightAware Approximate
Sat 06:23:47 AM 33.8733 -83.8436 64° Northeast 365 420 17,400  Level Atlanta Center
Sat 06:24:47 AM 33.9211 -83.7308 63° Northeast 370 426 19,300 1,950 Climbing Atlanta Center
Sat 06:25:47 AM 33.9878 -83.6231 53° Northeast 390 449 21,300 1,950 Climbing Atlanta Center
Sat 06:26:47 AM 34.0622 -83.5022 53° Northeast 403 464 23,200 1,850 Climbing Atlanta Center
Sat 06:27:47 AM 34.1328 -83.3889 53° Northeast 417 480 25,000 1,750 Climbing Atlanta Center
Sat 06:28:47 AM 34.2008 -83.2728 55° Northeast 417 480 26,700 1,700 Climbing Atlanta Center
Sat 06:29:47 AM 34.2733 -83.1564 53° Northeast 423 487 28,400 1,800 Climbing Atlanta Center
Sat 06:30:47 AM 34.3433 -83.0375 54° Northeast 438 504 30,300 1,800 Climbing Atlanta Center
Sat 06:31:47 AM 34.4111 -82.9258 54° Northeast 427 491 32,000 1,500 Climbing Atlanta Center
Sat 06:32:47 AM 34.4789 -82.8092 55° Northeast 421 484 33,300 1,300 Climbing Atlanta Center
Sat 06:33:47 AM 34.5444 -82.6972 55° Northeast 410 472 34,600 850 Climbing Atlanta Center
Sat 06:34:47 AM 34.6061 -82.5953 54° Northeast 404 465 35,000 200 Climbing Atlanta Center
Sat 06:35:47 AM 34.6756 -82.4803 54° Northeast 411 473 35,000  Level Atlanta Center
Sat 06:36:47 AM 34.7450 -82.3653 54° Northeast 418 481 35,000  Level Atlanta Center
Sat 06:37:47 AM 34.8164 -82.2425 55° Northeast 430 495 35,000  Level Atlanta Center
Sat 06:38:47 AM 34.8833 -82.1244 55° Northeast 430 495 35,000  Level Atlanta Center
Sat 06:39:47 AM 34.9647 -81.9958 52° Northeast 430 495 35,000  Level Atlanta Center
Sat 06:40:47 AM 35.0233 -81.8881 56° Northeast 430 495 35,000  Level Atlanta Center
Sat 06:41:47 AM 35.0942 -81.7644 55° Northeast 430 495 35,000  Level Atlanta Center
Sat 06:42:47 AM 35.1628 -81.6456 55° Northeast 430 495 35,000  Level Atlanta Center
Sat 06:43:47 AM 35.2314 -81.5267 55° Northeast 430 495 35,000  Level Atlanta Center
Sat 06:44:47 AM 35.2978 -81.4100 55° Northeast 424 488 35,000  Level Atlanta Center
Sat 06:45:47 AM 35.3622 -81.2933 56° Northeast 424 488 35,000  Level Atlanta Center
Sat 06:46:47 AM 35.4283 -81.1739 56° Northeast 419 482 35,000  Level Atlanta Center
Sat 06:47:47 AM 35.4983 -81.0517 55° Northeast 432 497 35,000  Level Atlanta Center
Sat 06:48:47 AM 35.5683 -80.9292 55° Northeast 432 497 35,000  Level Atlanta Center
Sat 06:49:47 AM 35.6361 -80.8142 54° Northeast 427 491 35,000  Level Atlanta Center
Sat 06:51:35 AM 35.7639 -80.5836 56° Northeast 436 502 35,000  Level Washington Center
Sat 06:52:35 AM 35.8317 -80.4597 56° Northeast 431 496 35,000  Level Washington Center
Sat 06:53:35 AM 35.8992 -80.3358 56° Northeast 426 490 35,000  Level Washington Center
Sat 06:54:35 AM 35.9689 -80.2117 55° Northeast 426 490 35,000  Level Washington Center
Sat 06:55:35 AM 36.0247 -80.1097 56° Northeast 431 496 35,000  Level Washington Center
Sat 06:56:35 AM 36.1028 -79.9778 54° Northeast 431 496 35,000  Level Washington Center
Sat 06:57:35 AM 36.1719 -79.8531 55° Northeast 437 503 35,000  Level Washington Center
Sat 06:58:35 AM 36.2436 -79.7128 58° Northeast 437 503 35,000  Level Washington Center
Sat 06:59:35 AM 36.3058 -79.6025 55° Northeast 437 503 35,000  Level Washington Center
Sat 07:00:35 AM 36.3814 -79.4594 57° Northeast 437 503 35,000  Level Washington Center
Sat 07:01:35 AM 36.4481 -79.3336 57° Northeast 437 503 35,000  Level Washington Center
Sat 07:02:35 AM 36.5189 -79.2050 56° Northeast 442 509 35,000  Level Washington Center
Sat 07:03:35 AM 36.5828 -79.0942 54° Northeast 442 509 35,000  Level Washington Center
Sat 07:04:35 AM 36.6489 -78.9678 57° Northeast 436 502 35,000 -1,450 Level Washington Center
Sat 07:05:35 AM 36.7153 -78.8333 58° Northeast 441 507 32,100 -2,950 Descending Washington Center
Sat 07:06:35 AM 36.7875 -78.7067 55° Northeast 447 514 29,100 -1,550 Descending Washington Center
Sat 07:07:35 AM 36.8556 -78.5719 58° Northeast 447 514 29,000 -50 Descending Washington Center
Sat 07:08:35 AM 36.9361 -78.4269 55° Northeast 452 520 29,000  Level Washington Center
Sat 07:09:35 AM 37.0061 -78.2889 58° Northeast 452 520 29,000  Level Washington Center
Sat 07:10:35 AM 37.0736 -78.1586 57° Northeast 452 520 29,000 -200 Level Washington Center
Sat 07:11:35 AM 37.1472 -78.0358 53° Northeast 445 512 28,600 -700 Descending Washington Center
Sat 07:12:35 AM 37.2572 -77.9586 29° Northeast 433 498 27,600 -950 Descending Washington Center
Sat 07:13:35 AM 37.3631 -77.8833 29° Northeast 433 498 26,700 -950 Descending Washington Center
Sat 07:14:35 AM 37.4686 -77.8081 30° Northeast 433 498 25,700 -1,000 Descending Washington Center
Sat 07:15:35 AM 37.5744 -77.7300 30° Northeast 433 498 24,700 -950 Descending Washington Center
Sat 07:16:35 AM 37.6822 -77.6542 29° Northeast 433 498 23,800 -850 Descending Washington Center
Sat 07:17:35 AM 37.7856 -77.5808 29° Northeast 433 498 23,000 -400 Descending Washington Center
Sat 07:18:35 AM 37.8889 -77.5019 31° Northeast 433 498 23,000  Level Washington Center
Sat 07:19:35 AM 37.9925 -77.4256 30° Northeast 428 493 23,000 -400 Level Washington Center
Sat 07:20:35 AM 38.0914 -77.3514 31° Northeast 428 493 22,200 -1,450 Descending Washington Center
Sat 07:21:35 AM 38.1883 -77.2797 30° Northeast 417 480 20,100 -1,650 Descending Washington Center
Sat 07:22:35 AM 38.2750 -77.1972 37° Northeast 404 465 18,900 -1,100 Descending Washington Center
Sat 07:23:35 AM 38.3536 -77.0956 45° Northeast 393 452 17,900 -1,750 Descending Washington Center
Sat 07:24:35 AM 38.4278 -77.0044 44° Northeast 382 440 15,400 -2,450 Descending Washington Center
Sat 07:25:35 AM 38.5017 -76.9103 45° Northeast 376 433 13,000 -2,300 Descending Washington Center
Sat 07:26:35 AM 38.5714 -76.8211 45° Northeast 371 427 10,800 -1,400 Descending Washington Center
Sat 07:27:35 AM 38.6347 -76.7397 45° Northeast 346 398 10,200 -850 Descending Washington Center
Sat 07:28:35 AM 38.6875 -76.6742 44° Northeast 302 348 9,100 -1,237 Descending Washington Center
Sat 07:29:46 AM 38.7500 -76.6000 43° Northeast 262 302 7,500 -1,392 Descending Potomac TRACON
Sat 07:30:40 AM 38.8000 -76.5333 46° Northeast 256 295 6,200 -1,263 Descending Potomac TRACON
Sat 07:31:40 AM 38.8500 -76.5167 15° North 237 273 5,100 -1,158 Descending Potomac TRACON
Sat 07:32:34 AM 38.9167 -76.5167 360° North 234 269 4,000 -944 Descending Potomac TRACON
Sat 07:33:28 AM 38.9667 -76.5333 345° North 221 254 3,400 -526 Descending Potomac TRACON
Sat 07:34:28 AM 39.0333 -76.5500 349° North 210 242 3,000 -500 Descending Potomac TRACON
Sat 07:35:28 AM 39.0667 -76.5833 322° Northwest 173 199 2,400 -632 Descending Potomac TRACON
Sat 07:36:22 AM 39.1000 -76.6000 339° North 142 163 1,800 -737 Descending Potomac TRACON
Sat 07:37:22 AM 39.1333 -76.6333 322° Northwest 130 150 1,000 -800 Descending Potomac TRACON
Sat 07:39:00 AM 39.1667 -76.6667 339° North  Level FlightAware Approximate
Sat 07:46:00 AM 39.1754 -76.6683 339° North  Level Estimated
Sat 07:47:00 AM 39.1754 -76.6683 339° North  Level Estimated
Sat 07:48:00 AM 39.1754 -76.6683 339° North  Level Estimated
Sat 07:49:00 AM 39.1754 -76.6683 339° North  Level Estimated

Login

Don't have an account? Register now (free) for customized features, flight alerts, and more!